createdAt,value
2018-11-02T00:00:17.789Z,3.53
2018-11-02T00:02:46.315Z,3.33
2018-11-02T00:05:14.832Z,4.07
2018-11-02T00:07:43.636Z,4.20
2018-11-02T00:10:12.202Z,3.40
2018-11-02T00:12:40.765Z,6.40
2018-11-02T00:15:09.311Z,5.30
2018-11-02T00:17:38.076Z,4.80
2018-11-02T00:20:06.931Z,4.07
2018-11-02T00:22:35.582Z,3.80
2018-11-02T00:25:04.138Z,5.10
2018-11-02T00:27:32.711Z,5.10
2018-11-02T00:30:01.781Z,4.20
2018-11-02T00:32:30.337Z,4.43
2018-11-02T00:34:58.887Z,3.60
2018-11-02T00:37:27.472Z,4.10
2018-11-02T00:39:56.000Z,4.67
2018-11-02T00:42:24.576Z,4.63
2018-11-02T00:44:53.263Z,4.40
2018-11-02T00:47:21.874Z,4.37
2018-11-02T00:49:50.480Z,4.00
2018-11-02T00:52:19.022Z,3.60
2018-11-02T00:54:47.597Z,3.60
2018-11-02T00:57:16.183Z,3.70
2018-11-02T00:59:44.766Z,3.20
2018-11-02T01:02:13.326Z,3.20
2018-11-02T01:04:41.896Z,3.27
2018-11-02T01:07:10.423Z,3.20
2018-11-02T01:09:38.976Z,3.00
2018-11-02T01:12:07.561Z,3.13
2018-11-02T01:14:36.127Z,3.10
2018-11-02T01:17:05.434Z,3.43
2018-11-02T01:19:34.792Z,3.43
2018-11-02T01:22:04.911Z,3.00
2018-11-02T01:24:33.631Z,2.73
2018-11-02T01:27:02.165Z,2.80
2018-11-02T01:29:30.703Z,2.87
2018-11-02T01:31:59.251Z,2.90
2018-11-02T01:34:27.834Z,3.20
2018-11-02T01:36:56.440Z,4.53
2018-11-02T01:39:24.988Z,4.40
2018-11-02T01:41:53.612Z,5.27
2018-11-02T01:44:22.187Z,5.27
2018-11-02T01:46:50.707Z,5.47
2018-11-02T01:49:19.280Z,5.53
2018-11-02T01:51:47.794Z,4.60
2018-11-02T01:54:16.553Z,4.23
2018-11-02T01:56:45.106Z,4.17
2018-11-02T01:59:13.689Z,4.07
2018-11-02T02:01:42.285Z,4.70
2018-11-02T02:04:10.863Z,4.67
2018-11-02T02:06:39.431Z,4.87
2018-11-02T02:09:09.989Z,5.20
2018-11-02T02:11:38.583Z,4.90
2018-11-02T02:14:07.423Z,4.80
2018-11-02T02:16:36.044Z,5.87
2018-11-02T02:19:05.286Z,5.87
2018-11-02T02:21:33.820Z,7.03
2018-11-02T02:24:02.381Z,7.10
2018-11-02T02:26:30.916Z,7.97
2018-11-02T02:28:59.447Z,7.53
2018-11-02T02:31:28.056Z,6.90
2018-11-02T02:33:56.598Z,7.37
2018-11-02T02:36:25.259Z,6.90
2018-11-02T02:38:54.403Z,6.67
2018-11-02T02:41:24.167Z,6.90
2018-11-02T02:43:52.897Z,6.83
2018-11-02T02:46:21.442Z,7.37
2018-11-02T02:48:49.997Z,6.50
2018-11-02T02:51:18.552Z,5.43
2018-11-02T02:53:47.134Z,5.40
2018-11-02T02:56:15.704Z,4.80
2018-11-02T02:58:44.218Z,5.93
2018-11-02T03:01:12.746Z,5.47
2018-11-02T03:03:41.264Z,5.10
2018-11-02T03:06:09.805Z,5.47
2018-11-02T03:08:38.522Z,5.30
2018-11-02T03:11:07.348Z,5.13
2018-11-02T03:13:35.699Z,5.10
2018-11-02T03:16:04.306Z,5.07
2018-11-02T03:18:32.992Z,5.20
2018-11-02T03:21:01.510Z,5.57
2018-11-02T03:23:30.187Z,5.13
2018-11-02T03:25:58.964Z,5.60
2018-11-02T03:28:27.452Z,5.63
2018-11-02T03:30:56.245Z,5.57
2018-11-02T03:33:24.992Z,5.70
2018-11-02T03:35:53.510Z,5.57
2018-11-02T03:38:22.090Z,5.23
2018-11-02T03:40:50.876Z,5.33
2018-11-02T03:43:19.410Z,5.10
2018-11-02T03:45:47.990Z,4.80
2018-11-02T03:48:16.607Z,4.70
2018-11-02T03:50:45.433Z,4.97
2018-11-02T03:53:13.912Z,5.47
2018-11-02T03:55:43.644Z,5.73
2018-11-02T03:58:12.916Z,5.90
2018-11-02T04:00:41.524Z,5.73
2018-11-02T04:03:10.169Z,5.77
2018-11-02T04:05:38.737Z,5.73
2018-11-02T04:08:07.268Z,5.47
2018-11-02T04:10:35.827Z,6.00
2018-11-02T04:13:04.429Z,5.90
2018-11-02T04:15:33.066Z,5.70
2018-11-02T04:18:01.625Z,5.67
2018-11-02T04:20:30.254Z,6.03
2018-11-02T04:22:58.819Z,6.30
2018-11-02T04:25:27.402Z,6.57
2018-11-02T04:27:55.936Z,6.90
2018-11-02T04:30:24.547Z,6.47
2018-11-02T04:32:53.115Z,6.53
2018-11-02T04:35:21.719Z,7.00
2018-11-02T04:37:50.230Z,6.80
2018-11-02T04:40:18.739Z,6.63
2018-11-02T04:42:47.273Z,6.73
2018-11-02T04:45:18.708Z,6.70
2018-11-02T04:47:47.257Z,7.13
2018-11-02T04:50:15.776Z,7.93
2018-11-02T04:52:44.314Z,7.30
2018-11-02T04:55:12.827Z,7.57
2018-11-02T04:57:41.346Z,8.20
2018-11-02T05:00:11.107Z,11.13
2018-11-02T05:02:39.881Z,12.60
2018-11-02T05:05:08.417Z,12.13
2018-11-02T05:07:37.530Z,11.50
2018-11-02T05:10:07.722Z,27.10
2018-11-02T05:12:36.251Z,19.43
2018-11-02T05:15:04.810Z,22.40
2018-11-02T05:17:33.659Z,16.33
2018-11-02T05:20:02.225Z,15.43
2018-11-02T05:22:30.929Z,13.23
2018-11-02T05:24:59.418Z,13.53
2018-11-02T05:27:27.960Z,13.03
2018-11-02T05:29:56.483Z,15.10
2018-11-02T05:32:25.079Z,12.17
2018-11-02T05:34:56.931Z,11.47
2018-11-02T05:37:25.496Z,10.77
2018-11-02T05:39:54.000Z,12.10
2018-11-02T05:42:22.575Z,14.20
2018-11-02T05:44:51.077Z,13.10
2018-11-02T05:47:19.724Z,13.10
2018-11-02T05:49:48.480Z,13.90
2018-11-02T05:52:17.005Z,12.90
2018-11-02T05:54:46.749Z,13.43
2018-11-02T05:57:15.359Z,14.57
2018-11-02T05:59:43.944Z,13.10
2018-11-02T06:02:12.463Z,12.93
2018-11-02T06:04:41.580Z,13.70
2018-11-02T06:07:10.792Z,13.80
2018-11-02T06:09:40.139Z,14.40
2018-11-02T06:12:09.521Z,26.03
2018-11-02T06:14:38.036Z,16.97
2018-11-02T06:17:06.823Z,13.60
2018-11-02T06:19:35.354Z,12.37
2018-11-02T06:22:04.007Z,16.30
2018-11-02T06:24:32.543Z,16.93
2018-11-02T06:27:01.384Z,13.73
2018-11-02T06:29:29.882Z,11.77
2018-11-02T06:31:58.678Z,12.03
2018-11-02T06:34:27.323Z,10.97
2018-11-02T06:36:56.149Z,14.53
2018-11-02T06:39:25.057Z,11.57
2018-11-02T06:41:53.635Z,13.83
2018-11-02T06:44:22.544Z,12.33
2018-11-02T06:46:52.275Z,10.97
2018-11-02T06:49:20.779Z,10.43
2018-11-02T06:51:50.406Z,10.70
2018-11-02T06:54:18.929Z,12.67
2018-11-02T06:56:47.628Z,11.43
2018-11-02T06:59:16.251Z,12.40
2018-11-02T07:01:44.841Z,13.20
2018-11-02T07:04:13.907Z,24.47
2018-11-02T07:06:42.531Z,35.60
2018-11-02T07:09:12.100Z,31.47
2018-11-02T07:11:40.612Z,33.87
2018-11-02T07:14:09.811Z,27.97
2018-11-02T07:16:38.398Z,18.30
2018-11-02T07:19:06.958Z,17.10
2018-11-02T07:21:35.498Z,28.60
2018-11-02T07:24:04.084Z,24.43
2018-11-02T07:26:32.625Z,22.53
2018-11-02T07:29:01.205Z,20.47
2018-11-02T07:31:29.799Z,21.83
2018-11-02T07:33:58.407Z,20.47
2018-11-02T07:36:27.316Z,19.53
2018-11-02T07:38:55.900Z,18.10
2018-11-02T07:41:24.708Z,20.83
2018-11-02T07:43:53.292Z,18.53
2018-11-02T07:46:21.914Z,17.13
2018-11-02T07:48:50.531Z,15.53
2018-11-02T07:51:19.218Z,17.20
2018-11-02T07:53:47.716Z,15.83
2018-11-02T07:56:16.270Z,18.80
2018-11-02T07:58:44.913Z,19.00
2018-11-02T08:01:13.410Z,20.13
2018-11-02T08:03:42.016Z,19.63
2018-11-02T08:06:10.774Z,19.63
2018-11-02T08:08:39.356Z,18.53
2018-11-02T08:11:08.318Z,16.07
2018-11-02T08:13:36.826Z,14.77
2018-11-02T08:16:05.631Z,14.57
2018-11-02T08:18:34.158Z,14.27
2018-11-02T08:21:02.689Z,14.53
2018-11-02T08:23:31.298Z,16.53
2018-11-02T08:26:00.090Z,15.13
2018-11-02T08:28:35.341Z,12.53
2018-11-02T08:31:03.858Z,13.07
2018-11-02T08:33:32.455Z,14.83
2018-11-02T08:36:01.047Z,15.33
2018-11-02T08:38:29.571Z,17.60
2018-11-02T08:40:58.119Z,12.23
2018-11-02T08:43:26.666Z,9.10
2018-11-02T08:45:55.548Z,9.50
2018-11-02T08:48:24.084Z,11.13
2018-11-02T08:50:52.626Z,9.23
2018-11-02T08:53:21.193Z,6.30
2018-11-02T08:55:49.750Z,8.87
2018-11-02T08:58:18.370Z,6.70
2018-11-02T09:00:46.898Z,7.77
2018-11-02T09:03:15.414Z,7.70
2018-11-02T09:05:43.945Z,7.17
2018-11-02T09:08:13.254Z,6.83
2018-11-02T09:10:41.831Z,7.60
2018-11-02T09:13:10.327Z,7.20
2018-11-02T09:15:38.852Z,6.80
2018-11-02T09:18:07.386Z,8.00
2018-11-02T09:20:36.106Z,7.30
2018-11-02T09:23:04.907Z,7.57
2018-11-02T09:25:33.428Z,6.57
2018-11-02T09:28:02.536Z,6.70
2018-11-02T09:30:31.022Z,6.77
2018-11-02T09:32:59.552Z,6.60
2018-11-02T09:35:28.100Z,5.23
2018-11-02T09:37:57.036Z,4.83
2018-11-02T09:40:25.589Z,5.07
2018-11-02T09:42:54.109Z,5.00
2018-11-02T09:45:22.632Z,3.87
2018-11-02T09:47:51.207Z,3.60
2018-11-02T09:50:19.735Z,3.87
2018-11-02T09:52:48.259Z,3.83
2018-11-02T09:55:17.057Z,3.77
2018-11-02T09:57:46.359Z,3.47
2018-11-02T10:00:15.291Z,3.60
2018-11-02T10:02:43.904Z,3.20
2018-11-02T10:05:13.197Z,2.87
2018-11-02T10:07:42.227Z,2.40
2018-11-02T10:10:12.120Z,2.70
2018-11-02T10:12:40.707Z,2.63
2018-11-02T10:15:11.743Z,2.60
2018-11-02T10:17:40.352Z,2.60
2018-11-02T10:20:09.603Z,2.50
2018-11-02T10:22:38.287Z,2.67
2018-11-02T10:25:07.468Z,2.40
2018-11-02T10:27:36.215Z,2.60
2018-11-02T10:30:05.893Z,2.50
2018-11-02T10:32:34.474Z,2.37
2018-11-02T10:35:03.083Z,2.20
2018-11-02T10:37:31.693Z,2.20
2018-11-02T10:40:00.308Z,2.23
2018-11-02T10:42:28.907Z,2.30
2018-11-02T10:44:57.551Z,2.40
2018-11-02T10:47:26.340Z,2.20
2018-11-02T10:49:54.837Z,2.30
2018-11-02T10:52:23.507Z,3.17
2018-11-02T10:54:52.011Z,2.33
2018-11-02T10:57:21.202Z,2.23
2018-11-02T10:59:49.740Z,2.60
2018-11-02T11:02:28.409Z,2.33
2018-11-02T11:04:57.406Z,2.10
2018-11-02T11:07:26.118Z,2.27
2018-11-02T11:09:54.644Z,2.20
2018-11-02T11:12:23.415Z,2.40
2018-11-02T11:14:51.829Z,2.20
2018-11-02T11:17:20.386Z,2.40
2018-11-02T11:19:48.944Z,2.13
2018-11-02T11:22:17.508Z,2.27
2018-11-02T11:24:46.085Z,1.87
2018-11-02T11:27:14.688Z,2.37
2018-11-02T11:29:43.341Z,9.47
2018-11-02T11:32:12.745Z,3.30
2018-11-02T11:34:41.290Z,1.90
2018-11-02T11:37:09.879Z,2.00
2018-11-02T11:39:38.882Z,2.00
2018-11-02T11:42:07.412Z,2.17
2018-11-02T11:44:35.969Z,2.10
2018-11-02T11:47:04.561Z,2.20
2018-11-02T11:49:33.518Z,2.00
2018-11-02T11:52:02.099Z,1.80
2018-11-02T11:54:30.828Z,2.20
2018-11-02T11:56:59.271Z,1.90
2018-11-02T11:59:27.801Z,1.97
2018-11-02T12:01:56.346Z,2.10
2018-11-02T12:04:25.009Z,2.22
2018-11-02T12:06:53.488Z,2.80
2018-11-02T12:09:22.052Z,1.90
2018-11-02T12:11:50.603Z,2.00
2018-11-02T12:14:19.162Z,2.20
2018-11-02T12:16:47.686Z,2.10
2018-11-02T12:19:16.276Z,2.23
2018-11-02T12:21:44.913Z,2.20
2018-11-02T12:24:13.488Z,2.30
2018-11-02T12:26:42.050Z,2.60
2018-11-02T12:29:10.662Z,2.60
2018-11-02T12:31:39.184Z,2.40
2018-11-02T12:34:07.695Z,2.17
2018-11-02T12:36:36.218Z,2.27
2018-11-02T12:39:06.796Z,2.63
2018-11-02T12:41:35.287Z,3.33
2018-11-02T12:44:03.927Z,2.70
2018-11-02T12:46:32.507Z,2.60
2018-11-02T12:49:01.525Z,2.43
2018-11-02T12:51:29.598Z,3.30
2018-11-02T12:53:58.178Z,2.50
2018-11-02T12:56:26.708Z,2.37
2018-11-02T12:58:55.279Z,2.30
2018-11-02T13:01:23.774Z,5.30
2018-11-02T13:03:52.351Z,17.97
2018-11-02T13:06:20.858Z,2.63
2018-11-02T13:08:49.426Z,3.00
2018-11-02T13:11:17.953Z,4.17
2018-11-02T13:13:46.456Z,2.90
2018-11-02T13:16:15.036Z,2.40
2018-11-02T13:18:43.659Z,2.63
2018-11-02T13:21:12.237Z,2.60
2018-11-02T13:23:40.780Z,3.13
2018-11-02T13:26:09.567Z,2.73
2018-11-02T13:28:37.867Z,2.90
2018-11-02T13:31:06.477Z,2.60
2018-11-02T13:33:35.000Z,2.87
2018-11-02T13:36:03.658Z,3.40
2018-11-02T13:38:32.185Z,2.90
2018-11-02T13:41:00.738Z,2.63
2018-11-02T13:43:29.306Z,2.70
2018-11-02T13:45:57.853Z,2.40
2018-11-02T13:48:26.421Z,2.43
2018-11-02T13:50:54.950Z,2.70
2018-11-02T13:53:23.473Z,2.50
2018-11-02T13:55:52.060Z,2.57
2018-11-02T13:58:20.606Z,2.50
2018-11-02T14:00:49.145Z,3.35
2018-11-02T14:03:17.683Z,2.37
2018-11-02T14:05:46.225Z,2.30
2018-11-02T14:08:14.810Z,2.60
2018-11-02T14:10:43.361Z,2.50
2018-11-02T14:13:12.964Z,2.33
2018-11-02T14:15:41.490Z,2.20
2018-11-02T14:18:10.030Z,2.40
2018-11-02T14:20:38.544Z,2.27
2018-11-02T14:23:07.127Z,3.13
2018-11-02T14:25:35.662Z,3.60
2018-11-02T14:28:04.446Z,3.90
2018-11-02T14:30:32.949Z,4.40
2018-11-02T14:33:01.495Z,5.17
2018-11-02T14:35:30.046Z,4.20
2018-11-02T14:37:58.556Z,4.07
2018-11-02T14:40:27.477Z,3.37
2018-11-02T14:42:55.982Z,4.53
2018-11-02T14:45:24.531Z,4.90
2018-11-02T14:47:53.055Z,5.10
2018-11-02T14:50:21.645Z,5.93
2018-11-02T14:52:50.154Z,8.07
2018-11-02T14:55:18.687Z,13.57
2018-11-02T14:57:47.206Z,8.80
2018-11-02T15:00:15.741Z,4.67
2018-11-02T15:02:44.303Z,4.90
2018-11-02T15:05:13.801Z,4.57
2018-11-02T15:07:43.338Z,4.30
2018-11-02T15:10:11.904Z,3.83
2018-11-02T15:12:40.812Z,4.93
2018-11-02T15:15:09.912Z,5.47
2018-11-02T15:17:38.808Z,6.23
2018-11-02T15:20:09.565Z,7.30
2018-11-02T15:22:38.148Z,5.17
2018-11-02T15:25:07.099Z,3.80
2018-11-02T15:27:36.063Z,3.70
2018-11-02T15:30:05.958Z,4.10
2018-11-02T15:32:34.519Z,9.73
2018-11-02T15:35:03.414Z,10.73
2018-11-02T15:37:32.089Z,9.13
2018-11-02T15:40:00.743Z,10.90
2018-11-02T15:42:29.331Z,10.50
2018-11-02T15:44:58.019Z,8.20
2018-11-02T15:47:26.618Z,8.50
2018-11-02T15:49:55.238Z,8.33
2018-11-02T15:52:23.781Z,8.10
2018-11-02T15:54:52.495Z,6.17
2018-11-02T15:57:21.287Z,4.73
2018-11-02T15:59:49.875Z,5.60
2018-11-02T16:02:18.417Z,5.67
2018-11-02T16:04:47.073Z,8.83
2018-11-02T16:07:15.627Z,11.27
2018-11-02T16:09:44.351Z,13.33
2018-11-02T16:12:12.907Z,7.17
2018-11-02T16:14:41.494Z,6.97
2018-11-02T16:17:10.077Z,18.70
2018-11-02T16:19:38.807Z,40.27
2018-11-02T16:22:07.391Z,47.13
2018-11-02T16:24:35.915Z,50.60
2018-11-02T16:27:04.539Z,31.67
2018-11-02T16:29:33.147Z,32.83
2018-11-02T16:32:01.801Z,31.80
2018-11-02T16:34:30.372Z,17.83
2018-11-02T16:36:58.885Z,10.87
2018-11-02T16:39:27.439Z,5.90
2018-11-02T16:41:56.015Z,6.13
2018-11-02T16:44:24.660Z,7.07
2018-11-02T16:46:53.175Z,5.77
2018-11-02T16:49:21.808Z,5.10
2018-11-02T16:51:50.410Z,5.30
2018-11-02T16:54:19.022Z,6.10
2018-11-02T16:56:47.545Z,12.30
2018-11-02T16:59:16.113Z,13.00
2018-11-02T17:01:44.688Z,8.20
2018-11-02T17:04:13.305Z,16.17
2018-11-02T17:06:41.934Z,20.73
2018-11-02T17:09:12.167Z,21.67
2018-11-02T17:11:40.764Z,22.07
2018-11-02T17:14:09.305Z,18.00
2018-11-02T17:16:37.826Z,22.57
2018-11-02T17:19:06.473Z,17.20
2018-11-02T17:21:35.042Z,13.77
2018-11-02T17:24:03.881Z,17.00
2018-11-02T17:26:32.468Z,12.97
2018-11-02T17:29:01.409Z,12.40
2018-11-02T17:31:30.066Z,10.70
2018-11-02T17:33:58.663Z,9.43
2018-11-02T17:36:27.313Z,8.43
2018-11-02T17:38:55.840Z,9.10
2018-11-02T17:41:24.412Z,11.77
2018-11-02T17:43:52.971Z,11.20
2018-11-02T17:46:21.904Z,10.47
2018-11-02T17:48:50.503Z,13.50
2018-11-02T17:51:19.124Z,12.47
2018-11-02T17:53:47.792Z,17.63
2018-11-02T17:56:16.402Z,25.47
2018-11-02T17:58:44.960Z,21.30
2018-11-02T18:01:13.600Z,45.87
2018-11-02T18:03:42.724Z,32.17
2018-11-02T18:06:11.392Z,41.73
2018-11-02T18:08:39.882Z,41.80
2018-11-02T18:11:08.422Z,20.03
2018-11-02T18:13:37.056Z,17.43
2018-11-02T18:16:05.800Z,14.50
2018-11-02T18:18:34.399Z,13.87
2018-11-02T18:21:03.048Z,13.40
2018-11-02T18:23:31.662Z,12.90
2018-11-02T18:26:00.212Z,12.40
2018-11-02T18:28:28.826Z,10.77
2018-11-02T18:30:57.477Z,8.13
2018-11-02T18:33:26.071Z,7.10
2018-11-02T18:35:54.645Z,6.70
2018-11-02T18:38:23.223Z,7.23
2018-11-02T18:40:51.788Z,7.67
2018-11-02T18:43:20.437Z,6.80
2018-11-02T18:45:48.993Z,5.67
2018-11-02T18:48:17.860Z,7.40
2018-11-02T18:50:46.337Z,6.73
2018-11-02T18:53:14.889Z,5.60
2018-11-02T18:55:43.532Z,5.87
2018-11-02T18:58:12.140Z,5.00
2018-11-02T19:00:40.725Z,4.90
2018-11-02T19:03:09.347Z,5.50
2018-11-02T19:05:37.908Z,5.10
2018-11-02T19:08:06.438Z,5.20
2018-11-02T19:10:35.008Z,5.17
2018-11-02T19:13:03.589Z,5.40
2018-11-02T19:15:32.180Z,5.20
2018-11-02T19:18:00.862Z,6.20
2018-11-02T19:20:29.594Z,10.50
2018-11-02T19:22:58.163Z,9.67
2018-11-02T19:25:27.594Z,13.60
2018-11-02T19:27:56.233Z,30.30
2018-11-02T19:30:24.874Z,36.33
2018-11-02T19:32:53.473Z,31.20
2018-11-02T19:35:22.259Z,27.83
2018-11-02T19:37:50.842Z,23.57
2018-11-02T19:40:19.361Z,15.50
2018-11-02T19:42:47.969Z,13.73
2018-11-02T19:45:16.810Z,11.63
2018-11-02T19:47:54.843Z,11.87
2018-11-02T19:50:23.599Z,10.73
2018-11-02T19:52:52.219Z,10.47
2018-11-02T19:55:20.944Z,10.30
2018-11-02T19:57:49.615Z,10.07
2018-11-02T20:00:18.295Z,9.67
2018-11-02T20:02:47.118Z,9.57
2018-11-02T20:05:17.415Z,10.00
2018-11-02T20:07:46.007Z,10.00
2018-11-02T20:10:15.609Z,12.00
2018-11-02T20:12:44.494Z,16.43
2018-11-02T20:15:13.984Z,12.20
2018-11-02T20:17:43.217Z,10.20
2018-11-02T20:20:13.530Z,11.63
2018-11-02T20:22:42.246Z,13.97
2018-11-02T20:25:13.545Z,13.83
2018-11-02T20:27:42.181Z,12.17
2018-11-02T20:30:16.730Z,11.03
2018-11-02T20:32:47.746Z,10.73
2018-11-02T20:35:18.630Z,10.93
2018-11-02T20:37:48.995Z,13.43
2018-11-02T20:40:19.904Z,18.43
2018-11-02T20:42:50.778Z,22.13
2018-11-02T20:45:19.552Z,18.43
2018-11-02T20:47:49.371Z,24.17
2018-11-02T20:50:18.364Z,19.53
2018-11-02T20:52:47.081Z,17.93
2018-11-02T20:55:16.101Z,20.00
2018-11-02T20:57:44.732Z,17.03
2018-11-02T21:00:14.935Z,14.57
2018-11-02T21:02:44.072Z,14.83
2018-11-02T21:05:13.708Z,13.43
2018-11-02T21:07:42.690Z,12.70
2018-11-02T21:10:12.731Z,23.47
2018-11-02T21:12:41.348Z,17.40
2018-11-02T21:15:12.328Z,17.50
2018-11-02T21:17:41.052Z,18.60
2018-11-02T21:20:14.677Z,25.63
2018-11-02T21:22:43.624Z,28.17
2018-11-02T21:25:13.008Z,17.97
2018-11-02T21:27:42.437Z,11.93
2018-11-02T21:30:16.093Z,12.10
2018-11-02T21:32:45.642Z,12.40
2018-11-02T21:35:14.918Z,12.23
2018-11-02T21:37:43.589Z,12.67
2018-11-02T21:40:15.307Z,13.23
2018-11-02T21:42:44.302Z,12.50
2018-11-02T21:45:14.568Z,12.20
2018-11-02T21:47:43.372Z,11.07
2018-11-02T21:50:12.959Z,11.18
2018-11-02T21:52:41.550Z,10.77
2018-11-02T21:55:10.247Z,11.10
2018-11-02T21:57:39.089Z,11.60
2018-11-02T22:00:09.971Z,12.53
2018-11-02T22:02:38.738Z,12.27
2018-11-02T22:05:08.618Z,11.90
2018-11-02T22:07:37.199Z,11.97
2018-11-02T22:12:32.555Z,11.30
2018-11-02T22:15:01.123Z,11.50
2018-11-02T22:17:29.733Z,10.73
2018-11-02T22:19:58.300Z,13.17
2018-11-02T22:22:26.920Z,10.93
2018-11-02T22:24:55.491Z,9.67
2018-11-02T22:27:24.137Z,9.93
2018-11-02T22:29:53.723Z,9.10
2018-11-02T22:32:22.618Z,8.77
2018-11-02T22:34:51.224Z,8.70
2018-11-02T22:37:19.841Z,9.10
2018-11-02T22:39:48.515Z,8.37
2018-11-02T22:42:17.076Z,8.10
2018-11-02T22:44:45.693Z,8.80
2018-11-02T22:47:14.350Z,7.77
2018-11-02T22:49:43.055Z,7.60
2018-11-02T22:52:12.294Z,7.53
2018-11-02T22:54:40.886Z,7.30
2018-11-02T22:57:09.577Z,7.33
2018-11-02T22:59:38.205Z,7.90
2018-11-02T23:02:07.205Z,7.27
2018-11-02T23:04:35.963Z,7.60
2018-11-02T23:07:04.597Z,7.33
2018-11-02T23:09:33.238Z,8.13
2018-11-02T23:12:01.878Z,7.90
2018-11-02T23:14:30.478Z,8.90
2018-11-02T23:16:59.120Z,8.63
2018-11-02T23:19:27.817Z,8.97
2018-11-02T23:21:56.360Z,8.73
2018-11-02T23:24:24.959Z,8.80
2018-11-02T23:26:53.625Z,8.97
2018-11-02T23:29:22.279Z,8.83
2018-11-02T23:31:57.260Z,8.87
2018-11-02T23:34:25.847Z,9.00
2018-11-02T23:36:54.519Z,9.10
2018-11-02T23:39:23.071Z,9.10
2018-11-02T23:41:51.751Z,9.40
2018-11-02T23:44:20.332Z,9.20
2018-11-02T23:46:49.013Z,9.97
2018-11-02T23:49:17.611Z,9.87
2018-11-02T23:51:46.276Z,10.20
2018-11-02T23:54:14.869Z,9.63
2018-11-02T23:56:43.479Z,10.00
2018-11-02T23:59:12.417Z,10.25
